Neuburg — 5BQJ2 — position and weather

sailwx.info

Track history (hours):
 
Tides and Currents Weather Stations Pressure Air Temp Water Temp Dewpoint Dewpoint Depression Visibility Wind Speed Wind Dir Waves Ship Positions

Neuburg

Last reported at 2015-Aug-30 21:10 UTC. Time now 2015-Sep-02 12:52 UTC.
Position N 34°09' W 008°26'.

Length 142 m; draft 7.1 m.

Type: Cargo ship. MMSI: 212740000.

Date/timePositionNaut miles runAvg speedWind from/ knotsBaromVisibWave heightAir tempDewpointWater temp
2015-Aug-30 21:10N 34°09' W 008°26'1016.8
2015-Aug-30 20:33N 34°15' W 008°17'1916.8
2015-Aug-30 19:24N 34°28' W 007°59'37615.7
2015-Aug-29 19:31N 37°13' W 001°02'1616.8
2015-Aug-29 18:33N 37°24' W 000°47'1716.7
2015-Aug-29 17:33N 37°36' W 000°32'1716.7
2015-Aug-29 16:33N 37°52' W 000°28'132 8.8
2015-Aug-29 01:33N 39°43' E 001°05'1717.2
2015-Aug-29 00:33N 39°58' E 001°16'1717.2
2015-Aug-28 23:33N 40°13' E 001°27'1717.4
2015-Aug-28 22:34N 40°28' E 001°37'1817.4
2015-Aug-28 21:33N 40°44' E 001°47'1817.7
2015-Aug-28 20:33N 40°60' E 001°58'1818.0
2015-Aug-28 19:33N 41°15' E 002°10'6 0.7
2015-Aug-28 11:20N 41°21' E 002°10'0 0.0
2015-Aug-28 10:32N 41°21' E 002°10'2 1.8
2015-Aug-28 09:33N 41°19' E 002°10'1 0.2
2015-Aug-28 03:24N 41°19' E 002°11'0 0.0
2015-Aug-28 01:12N 41°19' E 002°11'0 0.0
2015-Aug-28 00:30N 41°19' E 002°11'0 0.0
2015-Aug-27 23:24N 41°19' E 002°11'0 0.0
2015-Aug-27 21:11N 41°19' E 002°11'0 0.0
2015-Aug-27 15:29N 41°19' E 002°11'0 0.0
2015-Aug-27 09:05N 41°19' E 002°11'0 0.0
2015-Aug-27 08:29N 41°19' E 002°11'0 0.0
2015-Aug-26 21:11N 41°19' E 002°11'0 0.0
2015-Aug-26 20:26N 41°19' E 002°11'0 0.0
2015-Aug-26 17:29N 41°19' E 002°11'0 0.0
2015-Aug-26 07:16N 41°19' E 002°11'0 0.0
2015-Aug-26 06:16N 41°19' E 002°11'0 0.0
2015-Aug-26 05:22N 41°19' E 002°11'0 0.0
2015-Aug-26 02:10N 41°19' E 002°11'0 0.0
2015-Aug-26 01:28N 41°19' E 002°11'0 0.0
2015-Aug-26 00:16N 41°19' E 002°11'0 0.0
2015-Aug-25 22:28N 41°19' E 002°11'14 0.7
2015-Aug-25 02:33N 41°06' E 002°06'1313.0
2015-Aug-25 01:33N 40°55' E 001°57'1313.0
2015-Aug-25 00:33N 40°43' E 001°49'1312.8
2015-Aug-24 23:33N 40°32' E 001°42'1312.7
2015-Aug-24 22:33N 40°20' E 001°35'1312.8
2015-Aug-24 21:33N 40°09' E 001°27'1312.7
2015-Aug-24 20:33N 39°58' E 001°18'4413.4
2015-Aug-24 17:16N 39°19' E 000°52'87 2.7
2015-Aug-23 08:33N 38°17' W 000°26'1616.4
2015-Aug-23 07:33N 38°00' W 000°25'1313.4
2015-Aug-23 06:33N 37°47' W 000°27'1313.4
2015-Aug-23 05:33N 37°34' W 000°30'1313.3
2015-Aug-23 04:33N 37°25' W 000°42'1313.4
2015-Aug-23 03:33N 37°16' W 000°55'7113.4
2015-Aug-22 22:15N 36°28' W 002°00'1013.5
2015-Aug-22 21:32N 36°23' W 002°10'  
Track history (hours):
 
Tides and Currents Weather Stations Pressure Air Temp Water Temp Dewpoint Dewpoint Depression Visibility Wind Speed Wind Dir Waves Ship Positions

Neuburg

Last reported at 2015-Aug-30 21:10 UTC. Time now 2015-Sep-02 12:52 UTC.
Position N 34°09' W 008°26'.

Length 142 m; draft 7.1 m.

Type: Cargo ship. MMSI: 212740000.

Date/timePositionNaut miles runAvg speedWind from/ knotsBaromVisibWave heightAir tempDewpointWater temp
2015-Aug-30 21:10N 34°09' W 008°26'1016.8
2015-Aug-30 20:33N 34°15' W 008°17'1916.8
2015-Aug-30 19:24N 34°28' W 007°59'37615.7
2015-Aug-29 19:31N 37°13' W 001°02'1616.8
2015-Aug-29 18:33N 37°24' W 000°47'1716.7
2015-Aug-29 17:33N 37°36' W 000°32'1716.7
2015-Aug-29 16:33N 37°52' W 000°28'132 8.8
2015-Aug-29 01:33N 39°43' E 001°05'1717.2
2015-Aug-29 00:33N 39°58' E 001°16'1717.2
2015-Aug-28 23:33N 40°13' E 001°27'1717.4
2015-Aug-28 22:34N 40°28' E 001°37'1817.4
2015-Aug-28 21:33N 40°44' E 001°47'1817.7
2015-Aug-28 20:33N 40°60' E 001°58'1818.0
2015-Aug-28 19:33N 41°15' E 002°10'6 0.7
2015-Aug-28 11:20N 41°21' E 002°10'0 0.0
2015-Aug-28 10:32N 41°21' E 002°10'2 1.8
2015-Aug-28 09:33N 41°19' E 002°10'1 0.2
2015-Aug-28 03:24N 41°19' E 002°11'0 0.0
2015-Aug-28 01:12N 41°19' E 002°11'0 0.0
2015-Aug-28 00:30N 41°19' E 002°11'0 0.0
2015-Aug-27 23:24N 41°19' E 002°11'0 0.0
2015-Aug-27 21:11N 41°19' E 002°11'0 0.0
2015-Aug-27 15:29N 41°19' E 002°11'0 0.0
2015-Aug-27 09:05N 41°19' E 002°11'0 0.0
2015-Aug-27 08:29N 41°19' E 002°11'0 0.0
2015-Aug-26 21:11N 41°19' E 002°11'0 0.0
2015-Aug-26 20:26N 41°19' E 002°11'0 0.0
2015-Aug-26 17:29N 41°19' E 002°11'0 0.0
2015-Aug-26 07:16N 41°19' E 002°11'0 0.0
2015-Aug-26 06:16N 41°19' E 002°11'0 0.0
2015-Aug-26 05:22N 41°19' E 002°11'0 0.0
2015-Aug-26 02:10N 41°19' E 002°11'0 0.0
2015-Aug-26 01:28N 41°19' E 002°11'0 0.0
2015-Aug-26 00:16N 41°19' E 002°11'0 0.0
2015-Aug-25 22:28N 41°19' E 002°11'14 0.7
2015-Aug-25 02:33N 41°06' E 002°06'1313.0
2015-Aug-25 01:33N 40°55' E 001°57'1313.0
2015-Aug-25 00:33N 40°43' E 001°49'1312.8
2015-Aug-24 23:33N 40°32' E 001°42'1312.7
2015-Aug-24 22:33N 40°20' E 001°35'1312.8
2015-Aug-24 21:33N 40°09' E 001°27'1312.7
2015-Aug-24 20:33N 39°58' E 001°18'4413.4
2015-Aug-24 17:16N 39°19' E 000°52'87 2.7
2015-Aug-23 08:33N 38°17' W 000°26'1616.4
2015-Aug-23 07:33N 38°00' W 000°25'1313.4
2015-Aug-23 06:33N 37°47' W 000°27'1313.4
2015-Aug-23 05:33N 37°34' W 000°30'1313.3
2015-Aug-23 04:33N 37°25' W 000°42'1313.4
2015-Aug-23 03:33N 37°16' W 000°55'7113.4
2015-Aug-22 22:15N 36°28' W 002°00'1013.5
2015-Aug-22 21:32N 36°23' W 002°10'  

Dump ship's entire track history